.
WxDataArchive / Data Records for 2012-09-05
2012-09-04 September 2012 2012-09-06

Data Records for Wednesday, 05 September 2012

Time	Temp	Chill	HIndex	Humid	Dewpt	 Wind 	HiWind	WindDir	Rain 	Barom 
-----	----	-----	------	-----	-----	------	------	-------	-----	----- 
00:00	69.9	69.9	69.9	89	66.5	0	0	---	0.00	29.849 
00:05	69.8	69.8	69.8	89	66.4	0	0	---	0.00	29.849 
00:10	69.6	69.6	69.6	89	66.2	0	0	---	0.00	29.849 
00:15	69.4	69.4	69.4	89	66.0	0	0	---	0.00	29.850 
00:20	69.4	69.4	69.4	90	66.3	0	1	315	0.00	29.850 
00:25	69.3	69.3	69.3	90	66.2	0	0	---	0.00	29.850 
00:30	69.3	69.3	69.3	90	66.2	0	0	---	0.00	29.848 
00:35	69.3	69.3	69.3	90	66.2	0	0	---	0.00	29.848 
00:40	69.3	69.3	69.3	91	66.6	0	0	---	0.00	29.848 
00:45	69.1	69.1	69.1	91	66.4	0	0	---	0.00	29.844 
00:50	69.1	69.1	69.1	91	66.4	0	0	---	0.00	29.844 
00:55	68.9	68.9	68.9	91	66.2	0	0	---	0.00	29.844 
01:00	68.8	68.8	68.8	91	66.1	0	0	---	0.00	29.847 
01:05	68.6	68.6	68.6	91	65.9	0	0	---	0.00	29.847 
01:10	68.6	68.6	68.6	91	65.9	0	0	---	0.00	29.847 
01:15	68.4	68.4	68.4	91	65.7	0	0	---	0.00	29.844 
01:20	68.4	68.4	68.4	91	65.7	0	0	---	0.00	29.844 
01:25	68.3	68.3	68.3	92	65.9	0	0	---	0.00	29.844 
01:30	68.3	68.3	68.3	92	65.9	0	0	---	0.00	29.841 
01:35	68.3	68.3	68.3	92	65.9	0	0	---	0.00	29.841 
01:40	68.1	68.1	68.1	92	65.7	0	0	---	0.00	29.841 
01:45	67.9	67.9	67.9	92	65.5	0	0	---	0.00	29.847 
01:50	67.9	67.9	67.9	92	65.5	0	0	---	0.00	29.847 
01:55	67.8	67.8	67.8	92	65.4	0	0	---	0.00	29.847 
02:00	67.8	67.8	67.8	92	65.4	0	0	---	0.00	29.851 
02:05	67.8	67.8	67.8	93	65.7	0	0	---	0.00	29.851 
02:10	67.8	67.8	67.8	93	65.7	0	0	---	0.00	29.851 
02:15	67.6	67.6	67.6	93	65.5	0	0	---	0.00	29.850 
02:20	67.6	67.6	67.6	93	65.5	0	0	---	0.00	29.850 
02:25	67.4	67.4	67.4	93	65.3	0	0	---	0.00	29.850 
02:30	67.3	67.3	67.3	93	65.2	0	0	---	0.00	29.859 
02:35	67.1	67.1	67.1	93	65.0	0	0	---	0.00	29.859 
02:40	67.1	67.1	67.1	93	65.0	0	0	---	0.00	29.859 
02:45	67.1	67.1	67.1	93	65.0	0	0	---	0.00	29.858 
02:50	66.9	66.9	66.9	93	64.8	0	0	---	0.00	29.858 
02:55	67.1	67.1	67.1	94	65.3	0	0	---	0.00	29.858 
03:00	66.9	66.9	66.9	93	64.8	0	0	---	0.00	29.855 
03:05	66.9	66.9	66.9	94	65.1	0	0	---	0.00	29.855 
03:10	66.8	66.8	66.8	94	65.0	0	0	---	0.00	29.855 
03:15	66.6	66.6	66.6	94	64.8	0	0	---	0.00	29.854 
03:20	66.6	66.6	66.6	94	64.8	0	0	---	0.00	29.854 
03:25	66.6	66.6	66.6	94	64.8	0	0	---	0.00	29.854 
03:30	66.6	66.6	66.6	94	64.8	0	0	---	0.00	29.852 
03:35	66.4	66.4	66.4	94	64.6	0	0	---	0.00	29.852 
03:40	66.4	66.4	66.4	94	64.6	0	0	---	0.00	29.852 
03:45	66.4	66.4	66.4	94	64.6	0	0	---	0.00	29.853 
03:50	66.6	66.6	66.6	94	64.8	0	0	---	0.00	29.853 
03:55	66.6	66.6	66.6	94	64.8	0	0	---	0.00	29.853 
04:00	66.6	66.6	66.6	94	64.8	0	0	---	0.00	29.858 
04:05	66.4	66.4	66.4	94	64.6	0	0	---	0.00	29.858 
04:10	66.3	66.3	66.3	94	64.5	0	0	---	0.00	29.858 
04:15	66.1	66.1	66.1	94	64.3	0	1	315	0.00	29.854 
04:20	66.3	66.3	66.3	94	64.5	0	0	---	0.00	29.854 
04:25	66.1	66.1	66.1	94	64.3	0	0	---	0.00	29.854 
04:30	66.1	66.1	66.1	94	64.3	0	0	---	0.00	29.852 
04:35	66.0	66.0	66.0	95	64.5	0	0	---	0.00	29.852 
04:40	66.0	66.0	66.0	95	64.5	0	0	---	0.00	29.852 
04:45	66.1	66.1	66.1	95	64.6	0	0	---	0.00	29.847 
04:50	66.1	66.1	66.1	95	64.6	0	0	---	0.00	29.847 
04:55	66.1	66.1	66.1	95	64.6	0	0	---	0.00	29.847 
05:00	66.0	66.0	66.0	95	64.5	0	0	---	0.00	29.836 
05:05	66.0	66.0	66.0	95	64.5	0	0	---	0.00	29.836 
05:10	66.0	66.0	66.0	95	64.5	0	0	---	0.00	29.836 
05:15	66.1	66.1	66.1	95	64.6	0	0	---	0.00	29.834 
05:20	66.3	66.3	66.3	95	64.8	0	0	---	0.00	29.834 
05:25	66.4	66.4	66.4	95	64.9	0	0	---	0.00	29.834 
05:30	66.8	66.8	66.8	95	65.3	0	1	315	0.00	29.830 
05:35	67.1	67.1	67.1	95	65.6	0	0	---	0.00	29.830 
05:40	67.4	67.4	67.4	96	66.2	0	1	315	0.00	29.830 
05:45	67.6	67.6	67.6	96	66.4	0	0	---	0.00	29.837 
05:50	67.6	67.6	67.6	95	66.1	0	0	---	0.00	29.837 
05:55	67.6	67.6	67.6	95	66.1	0	0	---	0.00	29.837 
06:00	67.6	67.6	67.6	96	66.4	0	0	---	0.00	29.837 
06:05	67.6	67.6	67.6	95	66.1	0	0	---	0.00	29.837 
06:10	67.6	67.6	67.6	95	66.1	0	0	---	0.00	29.837 
06:15	67.6	67.6	67.6	96	66.4	0	1	315	0.00	29.836 
06:20	67.4	67.4	67.4	96	66.2	0	1	315	0.00	29.836 
06:25	67.4	67.4	67.4	96	66.2	0	1	315	0.00	29.836 
06:30	67.3	67.3	67.3	96	66.1	0	0	---	0.00	29.832 
06:35	67.3	67.3	67.3	96	66.1	0	0	---	0.00	29.832 
06:40	67.3	67.3	67.3	96	66.1	0	1	315	0.00	29.832 
06:45	67.3	67.3	67.3	96	66.1	0	1	315	0.00	29.831 
06:50	67.3	67.3	67.3	96	66.1	0	0	---	0.00	29.831 
06:55	67.1	67.1	67.1	96	65.9	0	0	---	0.00	29.831 
07:00	67.1	67.1	67.1	96	65.9	0	0	---	0.00	29.849 
07:05	67.1	67.1	67.1	96	65.9	0	1	315	0.00	29.849 
07:10	67.1	67.1	67.1	96	65.9	0	0	---	0.00	29.849 
07:15	67.3	67.3	67.3	96	66.1	0	0	---	0.00	29.847 
07:20	67.4	67.4	67.4	96	66.2	0	0	---	0.00	29.847 
07:25	67.6	67.6	67.6	96	66.4	0	0	---	0.00	29.847 
07:30	67.8	67.8	67.8	96	66.6	0	0	---	0.00	29.851 
07:35	67.9	67.9	67.9	96	66.7	0	0	---	0.00	29.851 
07:40	68.1	68.1	68.1	96	66.9	0	0	---	0.00	29.851 
07:45	68.4	68.4	68.4	96	67.2	0	0	---	0.00	29.851 
07:50	68.6	68.6	68.6	96	67.4	0	0	---	0.00	29.851 
07:55	68.9	68.9	68.9	96	67.7	0	1	315	0.00	29.851 
08:00	68.9	68.9	68.9	96	67.7	0	0	---	0.00	29.853 
08:05	69.1	69.1	69.1	96	67.9	0	1	315	0.00	29.853 
08:10	69.3	69.3	69.3	96	68.1	0	1	315	0.00	29.853 
08:15	69.3	69.3	69.3	96	68.1	0	1	315	0.00	29.858 
08:20	69.4	69.4	69.4	96	68.2	0	0	---	0.00	29.858 
08:25	69.6	69.6	69.6	96	68.4	0	1	315	0.00	29.858 
08:30	69.6	69.6	69.6	96	68.4	0	1	315	0.00	29.853 
08:35	69.8	69.8	69.8	96	68.6	0	0	---	0.00	29.853 
08:40	69.9	69.9	69.9	96	68.7	0	0	---	0.00	29.853 
08:45	69.9	69.9	69.9	96	68.7	0	1	315	0.00	29.855 
08:50	69.9	69.9	69.9	96	68.7	0	0	---	0.00	29.855 
08:55	70.1	70.1	70.1	96	68.9	0	1	315	0.00	29.855 
09:00	70.1	70.1	70.1	96	68.9	0	1	315	0.00	29.853 
09:05	70.1	70.1	70.1	96	68.9	0	2	315	0.00	29.853 
09:10	70.3	70.3	70.3	96	69.1	0	1	315	0.00	29.853 
09:15	70.4	70.4	70.4	96	69.2	0	1	315	0.00	29.858 
09:20	70.4	70.4	70.4	96	69.2	1	3	22	0.00	29.858 
09:25	70.6	70.6	70.6	96	69.4	1	4	22	0.00	29.858 
09:30	70.9	70.9	70.9	96	69.7	0	1	22	0.00	29.859 
09:35	71.1	71.1	71.1	96	69.9	0	1	22	0.00	29.859 
09:40	71.6	71.6	71.6	96	70.4	0	1	22	0.00	29.859 
09:45	72.0	72.0	72.0	95	70.5	0	2	22	0.00	29.869 
09:50	72.7	72.7	72.7	95	71.2	0	2	22	0.00	29.869 
09:55	73.0	73.0	73.0	94	71.2	0	2	22	0.00	29.869 
10:00	73.3	73.3	73.3	93	71.1	0	1	22	0.00	29.858 
10:05	73.7	73.7	73.7	92	71.2	0	4	22	0.00	29.858 
10:10	74.2	74.2	74.2	90	71.1	0	1	90	0.00	29.858 
10:15	74.7	74.7	74.7	88	70.9	0	2	90	0.00	29.854 
10:20	75.4	75.4	75.7	84	70.2	0	3	90	0.00	29.854 
10:25	76.1	76.1	77.1	81	69.8	0	3	158	0.00	29.854 
10:30	76.8	76.8	78.2	80	70.1	1	3	135	0.00	29.850 
10:35	77.6	77.6	79.6	77	69.8	0	2	135	0.00	29.850 
10:40	77.9	77.9	80.0	76	69.7	1	3	112	0.00	29.850 
10:45	78.1	78.1	80.4	77	70.3	1	2	112	0.00	29.843 
10:50	78.3	78.3	80.7	76	70.1	1	3	112	0.00	29.843 
10:55	78.6	78.6	81.2	76	70.4	1	4	112	0.00	29.843 
11:00	78.6	78.6	81.2	76	70.4	1	3	112	0.00	29.828 
11:05	78.8	78.8	81.5	75	70.2	1	4	68	0.00	29.828 
11:10	79.2	79.2	82.1	74	70.2	2	4	112	0.00	29.828 
11:15	79.8	79.8	83.0	73	70.4	1	4	112	0.00	29.819 
11:20	80.5	80.5	83.9	71	70.2	1	3	90	0.00	29.819 
11:25	81.1	81.1	84.6	69	69.9	1	3	68	0.00	29.819 
11:30	81.4	81.4	85.0	68	69.8	1	4	112	0.00	29.814 
11:35	82.0	82.0	86.0	68	70.4	1	4	112	0.00	29.814 
11:40	82.4	82.4	86.5	67	70.3	2	4	112	0.00	29.814 
11:45	82.6	82.6	86.4	65	69.6	1	4	90	0.00	29.816 
11:50	82.4	82.4	86.3	66	69.9	1	4	112	0.00	29.816 
11:55	82.0	82.0	85.8	67	69.9	1	3	112	0.00	29.816 
12:00	81.6	81.6	85.1	67	69.6	1	3	68	0.00	29.817 
12:05	81.4	81.4	85.0	68	69.8	0	2	68	0.00	29.817 
12:10	80.9	80.9	84.1	68	69.3	1	4	112	0.00	29.817 
12:15	80.5	80.5	83.6	69	69.4	0	2	112	0.00	29.820 
12:20	78.5	78.5	80.4	65	65.7	4	11	270	0.00	29.820 
12:25	75.1	75.1	76.5	73	65.8	4	9	270	0.00	29.820 
12:30	72.7	72.7	72.7	80	66.2	3	7	292	0.00	29.853 
12:35	71.1	71.1	71.1	85	66.4	2	5	292	0.06	29.853 
12:40	70.3	70.3	70.3	88	66.6	2	6	292	0.02	29.853 
12:45	69.6	69.6	69.6	90	66.5	1	5	270	0.01	29.852 
12:50	69.4	69.4	69.4	91	66.7	0	3	292	0.01	29.852 
12:55	69.3	69.3	69.3	91	66.6	0	3	292	0.01	29.852 
13:00	69.3	69.3	69.3	92	66.9	0	1	292	0.01	29.845 
13:05	69.8	69.8	69.8	92	67.4	0	0	---	0.00	29.845 
13:10	69.9	69.9	69.9	93	67.8	0	2	292	0.00	29.845 
13:15	69.9	69.9	69.9	92	67.5	0	3	292	0.00	29.837 
13:20	69.8	69.8	69.8	92	67.4	1	4	112	0.00	29.837 
13:25	69.9	69.9	69.9	92	67.5	1	3	112	0.00	29.837 
13:30	69.8	69.8	69.8	92	67.4	1	4	112	0.00	29.826 
13:35	69.8	69.8	69.8	91	67.0	1	4	112	0.00	29.826 
13:40	69.9	69.9	69.9	91	67.1	0	2	112	0.00	29.826 
13:45	70.4	70.4	70.4	92	68.0	1	3	112	0.01	29.827 
13:50	70.8	70.8	70.8	92	68.4	1	4	90	0.00	29.827 
13:55	71.1	71.1	71.1	92	68.7	1	4	90	0.00	29.827 
14:00	71.3	71.3	71.3	92	68.8	1	5	90	0.00	29.829 
14:05	71.6	71.6	71.6	92	69.1	1	4	90	0.00	29.829 
14:10	72.1	72.1	72.1	91	69.3	1	3	90	0.00	29.829 
14:15	72.5	72.5	72.5	91	69.7	1	4	90	0.00	29.832 
14:20	73.3	73.3	73.3	91	70.5	1	2	90	0.00	29.832 
14:25	73.7	73.7	73.7	89	70.2	1	4	112	0.00	29.832 
14:30	74.0	74.0	74.0	88	70.2	1	3	112	0.00	29.826 
14:35	74.6	74.6	74.6	86	70.1	1	4	112	0.00	29.826 
14:40	75.1	75.1	75.0	85	70.3	1	5	90	0.00	29.826 
14:45	75.6	75.6	76.0	84	70.4	0	3	90	0.00	29.811 
14:50	76.0	76.0	76.7	83	70.4	1	4	90	0.00	29.811 
14:55	76.3	76.3	77.2	83	70.7	1	3	68	0.00	29.811 
15:00	76.3	76.3	77.4	81	70.0	1	4	68	0.00	29.807 
15:05	76.7	76.7	78.0	82	70.8	1	3	90	0.00	29.807 
15:10	76.8	76.8	78.2	80	70.1	1	4	135	0.00	29.807 
15:15	76.8	76.8	78.2	80	70.1	1	4	90	0.00	29.793 
15:20	77.2	77.2	78.9	80	70.5	1	5	112	0.00	29.793 
15:25	77.2	77.2	78.9	78	69.8	1	4	90	0.00	29.793 
15:30	77.4	77.4	79.3	77	69.6	1	4	90	0.00	29.792 
15:35	77.6	77.6	79.6	77	69.8	1	3	135	0.00	29.792 
15:40	77.7	77.7	79.7	77	69.9	1	3	112	0.00	29.792 
15:45	77.9	77.9	80.0	75	69.3	1	4	112	0.00	29.791 
15:50	78.3	78.3	80.6	75	69.7	1	3	90	0.00	29.791 
15:55	78.5	78.5	80.9	74	69.5	1	3	90	0.00	29.791 
16:00	78.6	78.6	81.0	73	69.2	1	4	112	0.00	29.780 
16:05	78.6	78.6	81.0	72	68.8	2	4	112	0.00	29.780 
16:10	78.6	78.6	81.0	73	69.2	1	3	68	0.00	29.780 
16:15	78.8	78.8	81.3	73	69.4	0	2	22	0.00	29.777 
16:20	79.0	79.0	81.6	73	69.6	0	4	90	0.00	29.777 
16:25	79.0	79.0	81.5	71	68.8	0	2	90	0.00	29.777 
16:30	79.0	79.0	81.5	71	68.8	0	3	90	0.00	29.778 
16:35	79.2	79.2	81.8	71	69.0	0	2	90	0.00	29.778 
16:40	79.2	79.2	81.7	70	68.5	1	3	90	0.00	29.778 
16:45	79.2	79.2	81.6	69	68.1	0	2	112	0.00	29.776 
16:50	79.0	79.0	81.3	68	67.5	1	4	112	0.00	29.776 
16:55	79.0	79.0	81.3	69	67.9	1	3	90	0.00	29.776 
17:00	79.0	79.0	81.3	69	67.9	1	3	45	0.00	29.776 
17:05	79.0	79.0	81.4	70	68.4	0	2	45	0.00	29.776 
17:10	79.0	79.0	81.5	71	68.8	0	2	45	0.00	29.776 
17:15	78.8	78.8	81.1	70	68.2	0	2	292	0.00	29.780 
17:20	78.6	78.6	80.9	71	68.4	0	2	292	0.00	29.780 
17:25	78.5	78.5	80.8	71	68.3	0	2	315	0.00	29.780 
17:30	78.5	78.5	80.8	72	68.7	0	1	315	0.00	29.779 
17:35	78.5	78.5	80.8	71	68.3	0	2	315	0.00	29.779 
17:40	78.5	78.5	80.8	71	68.3	0	3	315	0.00	29.779 
17:45	78.5	78.5	80.8	71	68.3	0	2	315	0.00	29.776 
17:50	78.3	78.3	80.4	70	67.7	1	3	248	0.00	29.776 
17:55	78.3	78.3	80.4	70	67.7	0	2	248	0.00	29.776 
18:00	78.1	78.1	80.2	70	67.5	0	1	248	0.00	29.775 
18:05	77.9	77.9	79.9	71	67.7	0	1	248	0.00	29.775 
18:10	77.9	77.9	79.9	71	67.7	0	0	---	0.00	29.775 
18:15	77.9	77.9	79.9	72	68.1	0	1	248	0.00	29.780 
18:20	77.9	77.9	79.9	71	67.7	0	2	248	0.00	29.780 
18:25	77.9	77.9	79.9	72	68.1	0	1	248	0.00	29.780 
18:30	77.9	77.9	79.9	72	68.1	0	1	248	0.00	29.790 
18:35	77.9	77.9	79.9	72	68.1	0	0	---	0.00	29.790 
18:40	77.9	77.9	79.9	72	68.1	0	1	248	0.00	29.790 
18:45	77.9	77.9	79.9	71	67.7	0	2	248	0.00	29.792 
18:50	77.9	77.9	79.9	71	67.7	0	3	270	0.00	29.792 
18:55	78.1	78.1	80.2	71	67.9	0	3	270	0.00	29.792 
19:00	78.3	78.3	80.4	70	67.7	0	3	270	0.00	29.792 
19:05	78.5	78.5	80.7	70	67.9	0	2	270	0.00	29.792 
19:10	78.3	78.3	80.4	69	67.3	1	4	270	0.00	29.792 
19:15	78.1	78.1	80.1	69	67.1	1	3	270	0.00	29.792 
19:20	77.9	77.9	79.9	70	67.3	0	2	315	0.00	29.792 
19:25	77.7	77.7	79.6	70	67.1	1	3	315	0.00	29.792 
19:30	77.4	77.4	79.3	71	67.2	0	1	315	0.00	29.791 
19:35	77.2	77.2	79.0	72	67.5	0	1	315	0.00	29.791 
19:40	77.0	77.0	78.7	73	67.7	0	1	315	0.00	29.791 
19:45	76.7	76.7	78.3	73	67.4	0	2	315	0.00	29.791 
19:50	76.7	76.7	78.3	74	67.8	0	2	315	0.00	29.791 
19:55	76.5	76.5	78.0	75	68.0	0	1	315	0.00	29.791 
20:00	76.3	76.3	77.7	75	67.8	0	1	315	0.00	29.791 
20:05	76.3	76.3	77.7	76	68.2	0	1	315	0.00	29.791 
20:10	76.1	76.1	77.4	77	68.3	0	1	315	0.00	29.791 
20:15	76.0	76.0	77.2	77	68.3	0	1	315	0.00	29.791 
20:20	75.8	75.8	77.0	77	68.1	0	1	315	0.00	29.791 
20:25	75.6	75.6	76.7	77	67.9	0	1	315	0.00	29.791 
20:30	75.6	75.6	76.7	77	67.9	0	2	315	0.00	29.794 
20:35	75.6	75.6	76.7	77	67.9	0	2	315	0.00	29.794 
20:40	75.6	75.6	76.7	77	67.9	0	2	315	0.00	29.794 
20:45	75.4	75.4	76.4	77	67.7	0	1	315	0.00	29.800 
20:50	75.3	75.3	76.3	77	67.6	0	1	315	0.00	29.800 
20:55	75.1	75.1	76.1	77	67.4	0	1	315	0.00	29.800 
21:00	74.9	74.9	74.9	78	67.6	0	0	---	0.00	29.808 
21:05	74.7	74.7	74.7	78	67.4	0	0	---	0.00	29.808 
21:10	74.6	74.6	74.6	78	67.3	0	0	---	0.00	29.808 
21:15	74.4	74.4	74.4	79	67.4	0	0	---	0.00	29.809 
21:20	74.0	74.0	74.0	79	67.1	0	0	---	0.00	29.809 
21:25	73.7	73.7	73.7	80	67.1	0	0	---	0.00	29.809 
21:30	73.3	73.3	73.3	81	67.1	0	0	---	0.00	29.812 
21:35	73.2	73.2	73.2	81	67.0	0	1	315	0.00	29.812 
21:40	73.0	73.0	73.0	81	66.8	0	0	---	0.00	29.812 
21:45	72.8	72.8	72.8	82	67.0	0	0	---	0.00	29.810 
21:50	72.8	72.8	72.8	82	67.0	0	1	315	0.00	29.810 
21:55	72.8	72.8	72.8	82	67.0	0	1	315	0.00	29.810 
22:00	72.8	72.8	72.8	82	67.0	0	0	---	0.00	29.808 
22:05	72.7	72.7	72.7	82	66.9	0	0	---	0.00	29.808 
22:10	72.5	72.5	72.5	82	66.7	0	1	315	0.00	29.808 
22:15	72.5	72.5	72.5	82	66.7	0	0	---	0.00	29.805 
22:20	72.5	72.5	72.5	82	66.7	0	0	---	0.00	29.805 
22:25	72.3	72.3	72.3	83	66.8	0	0	---	0.00	29.805 
22:30	72.0	72.0	72.0	83	66.5	0	0	---	0.00	29.807 
22:35	71.8	71.8	71.8	84	66.7	0	0	---	0.00	29.807 
22:40	71.6	71.6	71.6	84	66.5	0	0	---	0.00	29.807 
22:45	71.6	71.6	71.6	84	66.5	0	1	315	0.00	29.806 
22:50	71.5	71.5	71.5	85	66.7	0	0	---	0.00	29.806 
22:55	71.6	71.6	71.6	85	66.8	0	1	315	0.00	29.806 
23:00	71.6	71.6	71.6	85	66.8	0	1	315	0.00	29.805 
23:05	71.6	71.6	71.6	85	66.8	0	2	315	0.00	29.805 
23:10	71.6	71.6	71.6	85	66.8	0	1	315	0.00	29.805 
23:15	71.6	71.6	71.6	86	67.2	0	1	315	0.00	29.800 
23:20	71.5	71.5	71.5	86	67.1	0	0	---	0.00	29.800 
23:25	71.5	71.5	71.5	86	67.1	0	0	---	0.00	29.800 
23:30	71.3	71.3	71.3	86	66.9	0	0	---	0.00	29.803 
23:35	71.1	71.1	71.1	86	66.7	0	0	---	0.00	29.803 
23:40	70.9	70.9	70.9	87	66.8	0	0	---	0.00	29.803 
23:45	70.8	70.8	70.8	87	66.7	0	1	315	0.00	29.803 
23:50	70.8	70.8	70.8	87	66.7	0	0	---	0.00	29.803 
23:55	70.6	70.6	70.6	88	66.9	0	0	---	0.00	29.803 

CoCoRaHS
IN-AL-39
A2 Web Hosting
Creative Commons License
GoDaddy
search engine by freefind advanced

loaded 2018-11-15 02:59:40 • last modified 2010-11-18 10:43:29
Privacy PolicyDisclaimer
• wx.awcolley.com is powered by PmWiki v.2002016 •
• all content (unless otherwise noted) © 2018 A W Colley